CheckWX is a tool to help pilots better visualize weather data.  It is not intended as a substitute for an official pre-flight weather briefing.

17:57:41 UTC

KRHV METAR
Reid-Hillview of Santa Clara County Airport
San Jose, California, USA
Current

1 hour ago

KRHV 251647Z VRB03KT 2SM OVC006 12/11 A3018
Observed
Jan-25 @ 16:47 UTC
Wind
  • Variable at 3 KTS
Visibility
2 SM
Flight Rules
IFR
Cloud Levels
  • Overcast at 600' AGL
Temperature
12°C / 54°F
Dewpoint
11°C / 52°F
Humidity
94%
Altimeter
30.18" Hg
Pressure
1022.02 hPa
Previous

2 hours ago

KRHV 251547Z 00000KT 3SM BKN006 OVC011 12/11 A3017
Observed
Jan-25 @ 15:47 UTC
Visibility
3 SM
Flight Rules
IFR
Cloud Levels
  • Broken at 600' AGL
  • Overcast at 1,100' AGL
Temperature
12°C / 54°F
Dewpoint
11°C / 52°F
Humidity
94%
Altimeter
30.17" Hg
Pressure
1021.72 hPa
Previous

3 hours ago

KRHV 251447Z 00000KT 10SM FEW001 SCT025 BKN120 12/11 A3017
Observed
Jan-25 @ 14:47 UTC
Visibility
10 SM
Flight Rules
VFR
Cloud Levels
  • Few at 100' AGL
  • Scattered at 2,500' AGL
  • Broken at 12,000' AGL
Temperature
12°C / 54°F
Dewpoint
11°C / 52°F
Humidity
94%
Altimeter
30.17" Hg
Pressure
1021.72 hPa